Time;durP1;ratioP1;P1;durP2;ratioP2;P2;SDS_P1;SDS_P2;PMS_P1;PMS_P2;Temp;Humidity;BMP_temperature;BMP_pressure;BME280_temperature;BME280_humidity;BME280_pressure;Samples;Min_cycle;Max_cycle;Signal;HPM_P1;HPM_P2
2022/05/09 00:01:48;;;;;;;7.13;5.53;;;14.90;99.90;;;;;;5063805;28;20581;-72
2022/05/09 00:04:13;;;;;;;5.97;5.37;;;14.90;99.90;;;;;;5066439;28;20641;-73
2022/05/09 00:06:39;;;;;;;6.57;5.70;;;14.80;99.90;;;;;;5064649;28;20238;-72
2022/05/09 00:09:05;;;;;;;7.80;5.90;;;14.80;99.90;;;;;;5066671;28;20176;-72
2022/05/09 00:11:31;;;;;;;7.60;5.40;;;14.70;99.90;;;;;;5063029;28;20181;-72
2022/05/09 00:13:56;;;;;;;8.80;5.80;;;14.80;99.90;;;;;;5065089;28;20218;-72
2022/05/09 00:16:22;;;;;;;6.10;5.50;;;14.70;99.90;;;;;;5064167;28;20487;-72
2022/05/09 00:18:48;;;;;;;7.07;5.97;;;14.80;99.90;;;;;;5066735;28;20194;-72
2022/05/09 00:21:14;;;;;;;8.10;6.00;;;14.60;99.90;;;;;;5068692;28;20244;-72
2022/05/09 00:23:39;;;;;;;8.30;6.10;;;14.70;99.90;;;;;;5069858;28;20195;-72
2022/05/09 00:26:05;;;;;;;10.53;7.17;;;14.70;99.90;;;;;;5068344;28;20639;-72
2022/05/09 00:28:31;;;;;;;6.90;6.07;;;14.80;99.90;;;;;;5068964;28;20192;-72
2022/05/09 00:30:56;;;;;;;7.03;6.30;;;14.80;99.90;;;;;;5067693;28;20189;-72
2022/05/09 00:33:24;;;;;;;6.80;6.10;;;14.80;99.90;;;;;;5066628;28;20185;-72
2022/05/09 00:35:58;;;;;;;6.90;6.20;;;14.70;99.90;;;;;;5069279;28;20189;-72
2022/05/09 00:38:25;;;;;;;6.47;5.87;;;15.00;99.90;;;;;;5065637;28;20493;-72
2022/05/09 00:43:37;;;;;;;8.70;6.10;;;14.70;99.90;;;;;;5064600;28;20907;-71
2022/05/09 00:46:03;;;;;;;10.03;6.87;;;14.70;99.90;;;;;;5067845;28;20434;-71
2022/05/09 00:48:29;;;;;;;8.60;6.87;;;14.70;99.90;;;;;;5067806;28;20448;-72
2022/05/09 00:50:56;;;;;;;9.00;6.27;;;14.70;99.90;;;;;;5067562;28;20184;-71
2022/05/09 00:53:23;;;;;;;7.97;7.27;;;14.70;99.90;;;;;;5068052;28;20434;-72
2022/05/09 00:55:56;;;;;;;9.53;6.70;;;14.70;99.90;;;;;;5067446;28;20493;-72
2022/05/09 00:58:32;;;;;;;7.53;6.73;;;14.70;99.90;;;;;;5068850;28;20513;-72
2022/05/09 01:00:58;;;;;;;8.27;6.53;;;14.60;99.90;;;;;;5066880;28;20441;-71
2022/05/09 01:03:30;;;;;;;8.77;6.60;;;14.50;99.90;;;;;;5067851;28;20446;-72
2022/05/09 01:05:55;;;;;;;9.10;6.97;;;14.50;99.90;;;;;;5068667;28;20776;-72
2022/05/09 01:08:23;;;;;;;7.63;6.87;;;14.50;99.90;;;;;;5067442;28;20484;-72
2022/05/09 01:10:49;;;;;;;10.00;6.60;;;14.50;99.90;;;;;;5068290;28;20172;-73
2022/05/09 01:13:19;;;;;;;7.70;6.43;;;14.40;99.90;;;;;;5066901;28;20920;-72
2022/05/09 01:15:47;;;;;;;7.70;6.90;;;14.40;99.90;;;;;;5068924;28;20477;-71
2022/05/09 01:18:14;;;;;;;8.73;7.83;;;14.30;99.90;;;;;;5067260;28;20597;-72
2022/05/09 01:20:41;;;;;;;8.27;7.37;;;14.50;99.90;;;;;;5068341;28;20426;-72
2022/05/09 01:23:07;;;;;;;10.37;7.20;;;14.50;99.90;;;;;;5066406;28;20732;-72
2022/05/09 01:25:33;;;;;;;9.90;7.77;;;14.60;99.90;;;;;;5067504;28;20463;-72
2022/05/09 01:27:59;;;;;;;8.27;7.37;;;14.50;99.90;;;;;;5066549;28;20430;-72
2022/05/09 01:30:37;;;;;;;12.40;7.60;;;14.50;99.90;;;;;;5068351;28;20415;-72
2022/05/09 01:33:13;;;;;;;8.10;6.87;;;14.40;99.90;;;;;;5065555;28;20473;-72
2022/05/09 01:35:46;;;;;;;10.50;7.47;;;14.40;99.90;;;;;;5066309;28;20608;-73
2022/05/09 01:38:35;;;;;;;8.87;7.60;;;14.10;99.90;;;;;;5068463;28;20422;-72
2022/05/09 01:41:01;;;;;;;9.20;7.37;;;14.40;99.90;;;;;;5066657;28;20426;-72
2022/05/09 01:43:42;;;;;;;8.63;7.43;;;14.50;99.90;;;;;;5066038;28;20492;-72
2022/05/09 01:46:14;;;;;;;10.00;7.70;;;14.50;99.90;;;;;;5064379;28;20969;-72
2022/05/09 01:51:24;;;;;;;8.50;7.57;;;14.60;99.90;;;;;;5066387;28;20495;-72
2022/05/09 01:53:52;;;;;;;7.87;7.07;;;14.60;99.90;;;;;;5066970;28;20426;-72
2022/05/09 01:56:20;;;;;;;10.23;8.00;;;14.60;99.90;;;;;;5065936;28;20203;-72
2022/05/09 01:58:45;;;;;;;9.40;7.70;;;14.70;99.90;;;;;;5068331;28;20411;-72
2022/05/09 02:01:11;;;;;;;10.17;8.37;;;14.70;99.90;;;;;;5065028;28;20528;-73
2022/05/09 02:03:37;;;;;;;8.57;7.70;;;15.10;99.90;;;;;;5068038;28;20180;-72
2022/05/09 02:06:03;;;;;;;9.20;8.00;;;14.80;99.90;;;;;;5066693;28;20666;-72
2022/05/09 02:08:29;;;;;;;9.23;7.60;;;14.80;99.90;;;;;;5068134;28;20181;-72
2022/05/09 02:10:55;;;;;;;9.13;7.90;;;14.80;99.90;;;;;;5065760;28;20450;-71
2022/05/09 02:13:21;;;;;;;8.77;7.67;;;14.90;99.90;;;;;;5066365;28;20654;-72
2022/05/09 02:15:47;;;;;;;10.07;7.90;;;14.90;99.90;;;;;;5067003;28;20231;-71
2022/05/09 02:18:12;;;;;;;9.67;7.60;;;14.80;99.90;;;;;;5066286;28;20937;-72
2022/05/09 02:20:38;;;;;;;7.90;7.20;;;14.80;99.90;;;;;;5066534;28;20602;-73
2022/05/09 02:23:04;;;;;;;8.40;7.60;;;14.70;99.90;;;;;;5067090;28;20180;-72
2022/05/09 02:25:30;;;;;;;8.93;8.03;;;14.60;99.90;;;;;;5065777;28;20217;-73
2022/05/09 02:27:59;;;;;;;9.50;7.53;;;14.70;99.90;;;;;;5067131;28;20521;-72
2022/05/09 02:30:25;;;;;;;12.20;7.70;;;14.80;99.90;;;;;;5067066;28;20192;-72
2022/05/09 02:32:52;;;;;;;12.80;7.57;;;14.80;99.90;;;;;;5062857;28;20759;-72
2022/05/09 02:35:19;;;;;;;9.90;7.97;;;14.90;99.90;;;;;;5061898;28;20445;-72
2022/05/09 02:37:44;;;;;;;8.73;7.40;;;15.00;99.90;;;;;;5067402;28;20421;-72
2022/05/09 02:40:10;;;;;;;9.30;7.23;;;15.10;99.90;;;;;;5065656;28;20521;-72
2022/05/09 02:42:36;;;;;;;10.13;7.43;;;15.20;99.90;;;;;;5058148;28;20243;-71
2022/05/09 02:45:03;;;;;;;9.20;7.53;;;15.30;99.90;;;;;;5066251;28;20225;-72
2022/05/09 02:47:29;;;;;;;10.30;8.10;;;15.30;99.90;;;;;;5065518;28;20638;-72
2022/05/09 02:49:54;;;;;;;12.17;7.80;;;15.40;99.90;;;;;;5066290;28;20450;-72
2022/05/09 02:52:20;;;;;;;8.17;7.40;;;15.40;99.90;;;;;;5066082;28;20422;-73
2022/05/09 02:54:45;;;;;;;10.20;7.40;;;15.40;99.90;;;;;;5064519;28;20168;-71
2022/05/09 02:57:12;;;;;;;10.10;7.43;;;15.40;99.90;;;;;;5066872;28;20607;-72
2022/05/09 02:59:37;;;;;;;8.47;7.10;;;15.20;99.90;;;;;;5065199;28;20263;-71
2022/05/09 03:02:03;;;;;;;8.40;7.40;;;15.10;99.90;;;;;;5064833;28;20502;-73
2022/05/09 03:04:41;;;;;;;9.00;7.70;;;14.90;99.90;;;;;;5066298;28;20273;-72
2022/05/09 03:07:12;;;;;;;8.23;7.40;;;14.80;99.90;;;;;;5065694;28;20190;-71
2022/05/09 03:09:41;;;;;;;10.57;8.03;;;14.70;99.90;;;;;;5064339;28;20434;-71
2022/05/09 03:12:08;;;;;;;8.60;7.70;;;14.50;99.90;;;;;;5065852;28;20857;-72
2022/05/09 03:14:34;;;;;;;8.93;7.90;;;14.40;99.90;;;;;;5065704;28;20431;-72
2022/05/09 03:17:00;;;;;;;9.10;8.03;;;14.30;99.90;;;;;;5054335;28;20964;-72
2022/05/09 03:19:26;;;;;;;8.00;7.20;;;14.10;99.90;;;;;;5065703;28;20172;-72
2022/05/09 03:21:52;;;;;;;9.27;7.90;;;14.10;99.90;;;;;;5065041;28;20180;-74
2022/05/09 03:24:19;;;;;;;8.40;7.60;;;14.10;99.90;;;;;;5065709;28;20403;-72
2022/05/09 03:26:48;;;;;;;9.13;8.23;;;14.00;99.90;;;;;;5065356;28;20422;-72
2022/05/09 03:29:15;;;;;;;9.47;8.43;;;14.00;99.90;;;;;;5065320;28;20439;-72
2022/05/09 03:31:41;;;;;;;8.43;7.60;;;14.00;99.90;;;;;;5064286;28;20465;-72
2022/05/09 03:34:07;;;;;;;8.80;7.90;;;13.90;99.90;;;;;;5065796;28;20798;-72
2022/05/09 03:36:33;;;;;;;9.33;7.87;;;14.00;99.90;;;;;;5065755;28;20608;-72
2022/05/09 03:38:59;;;;;;;9.20;7.53;;;14.00;99.90;;;;;;5066153;28;20173;-72
2022/05/09 03:41:24;;;;;;;8.20;7.00;;;14.30;99.90;;;;;;5064601;28;20811;-72
2022/05/09 03:43:50;;;;;;;8.77;7.63;;;14.50;99.90;;;;;;5065980;28;20173;-72
2022/05/09 03:46:16;;;;;;;10.33;7.33;;;14.70;99.90;;;;;;5063422;28;20312;-71
2022/05/09 03:48:41;;;;;;;8.07;6.50;;;14.80;99.90;;;;;;5066211;28;20169;-72
2022/05/09 03:51:07;;;;;;;10.37;6.50;;;15.00;99.90;;;;;;5064461;28;20180;-72
2022/05/09 03:53:33;;;;;;;8.00;6.93;;;15.10;99.90;;;;;;5067867;28;20176;-72
2022/05/09 03:56:00;;;;;;;7.43;6.70;;;15.30;99.90;;;;;;5068834;28;20685;-72
2022/05/09 03:58:26;;;;;;;7.40;6.70;;;15.40;99.90;;;;;;5069774;28;20773;-72
2022/05/09 04:00:52;;;;;;;9.63;7.27;;;15.40;99.90;;;;;;5068750;28;20442;-71
2022/05/09 04:03:18;;;;;;;8.07;6.90;;;15.50;99.90;;;;;;5069141;28;20415;-72
2022/05/09 04:05:43;;;;;;;7.70;6.47;;;15.50;99.90;;;;;;5069459;28;20646;-72
2022/05/09 04:08:12;;;;;;;10.43;6.80;;;15.60;99.90;;;;;;5069894;28;20422;-72
2022/05/09 04:10:40;;;;;;;8.50;6.90;;;15.60;99.90;;;;;;5068387;28;20181;-72
2022/05/09 04:13:06;;;;;;;11.90;7.73;;;15.60;99.90;;;;;;5068269;28;20406;-72
2022/05/09 04:18:17;;;;;;;8.97;7.40;;;15.70;99.90;;;;;;5069020;28;20421;-72
2022/05/09 04:20:45;;;;;;;8.70;7.10;;;15.70;99.90;;;;;;5067854;28;20588;-72
2022/05/09 04:23:10;;;;;;;8.90;6.77;;;15.80;99.90;;;;;;5069153;28;20421;-72
2022/05/09 04:25:36;;;;;;;9.73;7.87;;;15.80;99.60;;;;;;5069401;28;21062;-72
2022/05/09 04:28:04;;;;;;;9.40;6.80;;;15.90;99.90;;;;;;5069428;28;20180;-72
2022/05/09 04:30:31;;;;;;;8.57;6.80;;;15.90;99.90;;;;;;5068748;28;20192;-72
2022/05/09 04:32:57;;;;;;;9.30;7.30;;;15.90;99.90;;;;;;5067841;28;20430;-72
2022/05/09 04:35:23;;;;;;;8.97;8.07;;;15.80;99.90;;;;;;5069107;28;20468;-71
2022/05/09 04:37:52;;;;;;;10.33;8.53;;;15.80;99.90;;;;;;5067706;28;20215;-72
2022/05/09 04:40:21;;;;;;;10.73;9.03;;;15.70;99.90;;;;;;5068406;28;20438;-72
2022/05/09 04:42:46;;;;;;;9.70;8.70;;;15.40;99.90;;;;;;5060610;28;20415;-72
2022/05/09 04:45:13;;;;;;;10.87;9.77;;;15.10;99.90;;;;;;5068855;28;20469;-72
2022/05/09 04:47:39;;;;;;;11.90;9.80;;;14.90;99.90;;;;;;5067857;28;20172;-72
2022/05/09 04:50:07;;;;;;;11.60;9.30;;;14.80;99.90;;;;;;5067095;28;20461;-72
2022/05/09 04:52:32;;;;;;;11.40;9.00;;;14.80;99.90;;;;;;5067841;28;20218;-72
2022/05/09 04:54:58;;;;;;;10.40;9.40;;;14.70;99.90;;;;;;5067491;28;20430;-72
2022/05/09 04:57:24;;;;;;;12.20;9.60;;;14.70;99.90;;;;;;5068581;28;20172;-73
2022/05/09 04:59:49;;;;;;;11.37;9.33;;;14.70;99.90;;;;;;5067564;28;20189;-73
2022/05/09 05:02:15;;;;;;;12.50;9.60;;;14.60;99.90;;;;;;5066526;28;20267;-72
2022/05/09 05:04:42;;;;;;;11.83;9.43;;;14.60;99.90;;;;;;5068139;28;20623;-72
2022/05/09 05:07:08;;;;;;;13.97;10.20;;;14.60;99.90;;;;;;5068012;28;20199;-72
2022/05/09 05:09:35;;;;;;;15.40;9.67;;;14.40;99.90;;;;;;5068927;28;20454;-73
2022/05/09 05:12:01;;;;;;;15.37;10.30;;;14.40;99.90;;;;;;5059584;28;20514;-72
2022/05/09 05:14:26;;;;;;;15.20;10.03;;;14.50;99.90;;;;;;5067259;28;20460;-73
2022/05/09 05:17:01;;;;;;;15.00;10.40;;;14.50;99.90;;;;;;5065338;28;20447;-72
2022/05/09 05:19:31;;;;;;;13.17;10.50;;;14.50;99.90;;;;;;5068925;28;20175;-71
2022/05/09 05:21:57;;;;;;;13.10;10.20;;;14.60;99.90;;;;;;5067583;28;20528;-71
2022/05/09 05:24:23;;;;;;;13.17;11.10;;;14.70;99.90;;;;;;5067935;28;20474;-72
2022/05/09 05:26:49;;;;;;;15.07;12.10;;;14.80;99.90;;;;;;5067519;28;20465;-73
2022/05/09 05:29:15;;;;;;;14.70;11.90;;;14.80;99.90;;;;;;5067235;28;20169;-72
2022/05/09 05:31:40;;;;;;;18.30;11.67;;;14.90;99.90;;;;;;5066882;28;20169;-72
2022/05/09 05:34:06;;;;;;;20.70;11.60;;;14.60;99.90;;;;;;5067926;28;20446;-72
2022/05/09 05:36:31;;;;;;;13.80;11.67;;;15.00;99.90;;;;;;5066761;28;20203;-72
2022/05/09 05:38:57;;;;;;;16.87;11.53;;;15.10;99.90;;;;;;5069180;28;20278;-72
2022/05/09 05:41:22;;;;;;;15.27;10.97;;;15.20;99.90;;;;;;5067261;28;20176;-72
2022/05/09 05:43:48;;;;;;;12.87;10.97;;;15.20;99.90;;;;;;5068314;28;20168;-72
2022/05/09 05:46:14;;;;;;;15.20;11.43;;;15.30;99.90;;;;;;5067668;28;20512;-72
2022/05/09 05:48:40;;;;;;;17.10;11.07;;;15.40;99.90;;;;;;5067575;28;20419;-72
2022/05/09 05:51:06;;;;;;;16.77;11.70;;;15.50;99.90;;;;;;5067488;28;20233;-73
2022/05/09 05:53:34;;;;;;;19.17;10.93;;;15.60;99.90;;;;;;5067326;28;20406;-72
2022/05/09 05:55:59;;;;;;;14.50;11.03;;;15.60;99.90;;;;;;5067414;28;20195;-72
2022/05/09 05:58:26;;;;;;;13.00;11.23;;;15.80;99.90;;;;;;5067354;28;20431;-72
2022/05/09 06:00:53;;;;;;;22.20;10.50;;;15.90;99.90;;;;;;5067343;28;20188;-71
2022/05/09 06:03:20;;;;;;;13.83;11.23;;;16.00;99.90;;;;;;5064744;28;20454;-72
2022/05/09 06:05:46;;;;;;;13.87;10.93;;;16.00;99.90;;;;;;5065714;28;21010;-72
2022/05/09 06:08:11;;;;;;;12.90;10.63;;;16.10;99.90;;;;;;5066065;28;20561;-72
2022/05/09 06:10:37;;;;;;;13.60;9.87;;;16.20;99.90;;;;;;5061510;28;20428;-72
2022/05/09 06:13:04;;;;;;;15.73;11.23;;;16.40;99.90;;;;;;5060947;28;20180;-73
2022/05/09 06:15:32;;;;;;;13.70;10.40;;;16.40;99.90;;;;;;5061989;28;20769;-73
2022/05/09 06:18:00;;;;;;;16.60;11.13;;;16.50;99.90;;;;;;5066065;28;20778;-73
2022/05/09 06:20:27;;;;;;;14.77;9.80;;;16.60;99.90;;;;;;5066177;28;20985;-73
2022/05/09 06:22:56;;;;;;;16.40;10.33;;;16.80;99.90;;;;;;5065637;28;20423;-72
2022/05/09 06:25:23;;;;;;;13.20;10.80;;;17.00;99.90;;;;;;5062446;28;20471;-73
2022/05/09 06:27:48;;;;;;;12.67;10.53;;;17.10;99.90;;;;;;5066540;28;20414;-72
2022/05/09 06:30:16;;;;;;;14.70;10.40;;;17.20;99.90;;;;;;5066609;28;20429;-73
2022/05/09 06:32:42;;;;;;;14.70;10.63;;;17.30;99.90;;;;;;5065620;28;20260;-73
2022/05/09 06:35:11;;;;;;;15.40;10.43;;;17.50;99.90;;;;;;5067278;28;20998;-73
2022/05/09 06:37:38;;;;;;;13.10;10.10;;;17.60;99.90;;;;;;5066892;28;20267;-73
2022/05/09 06:40:06;;;;;;;10.30;8.97;;;17.70;99.40;;;;;;5065266;28;20439;-72
2022/05/09 06:42:31;;;;;;;12.63;8.80;;;18.00;90.60;;;;;;5066066;28;20411;-73
2022/05/09 06:44:57;;;;;;;16.40;9.73;;;18.20;91.00;;;;;;5064410;28;20470;-73
2022/05/09 06:47:23;;;;;;;15.37;10.40;;;18.40;89.10;;;;;;5065074;28;20184;-75
2022/05/09 06:49:48;;;;;;;12.73;10.13;;;18.60;90.90;;;;;;5067331;28;20275;-73
2022/05/09 06:52:14;;;;;;;12.30;9.53;;;18.70;85.60;;;;;;5065119;28;20212;-73
2022/05/09 06:54:39;;;;;;;13.20;10.00;;;18.90;85.80;;;;;;5062560;28;20216;-72
2022/05/09 06:57:05;;;;;;;11.77;8.50;;;19.10;76.90;;;;;;5064706;28;20200;-73
2022/05/09 06:59:32;;;;;;;14.80;9.07;;;19.30;65.90;;;;;;5065304;28;20180;-72
2022/05/09 07:01:57;;;;;;;12.50;9.17;;;19.50;67.00;;;;;;5065029;28;20647;-72
2022/05/09 07:04:23;;;;;;;11.57;8.73;;;19.70;59.50;;;;;;5065627;28;20500;-73
2022/05/09 07:06:49;;;;;;;10.93;8.37;;;19.90;56.20;;;;;;5065759;28;20231;-73
2022/05/09 07:09:15;;;;;;;10.63;7.83;;;20.20;51.60;;;;;;5064554;28;20257;-73
2022/05/09 07:11:42;;;;;;;9.63;7.90;;;20.30;46.60;;;;;;5063698;28;20647;-72
2022/05/09 07:14:08;;;;;;;10.33;8.10;;;20.50;46.80;;;;;;5064870;28;20441;-72
2022/05/09 07:16:34;;;;;;;9.33;8.33;;;20.60;46.90;;;;;;5064381;28;20450;-72
2022/05/09 07:18:59;;;;;;;10.60;8.07;;;20.60;46.90;;;;;;5064477;28;20491;-73
2022/05/09 07:21:26;;;;;;;12.90;7.83;;;20.60;46.90;;;;;;5065440;28;20176;-72
2022/05/09 07:23:51;;;;;;;11.40;8.20;;;20.80;47.00;;;;;;5057750;28;20716;-72
2022/05/09 07:26:17;;;;;;;9.90;8.37;;;21.10;47.30;;;;;;5065041;28;20457;-71
2022/05/09 07:28:42;;;;;;;10.80;8.10;;;21.20;47.40;;;;;;5061588;28;20188;-71
2022/05/09 07:31:09;;;;;;;11.10;8.00;;;21.30;47.60;;;;;;5062062;28;20195;-71
2022/05/09 07:33:36;;;;;;;10.93;8.40;;;21.50;47.70;;;;;;5057023;28;20215;-73
2022/05/09 07:36:02;;;;;;;9.80;8.20;;;21.80;47.80;;;;;;5048834;28;20458;-71
2022/05/09 07:38:28;;;;;;;10.77;8.10;;;21.70;47.80;;;;;;5040451;28;20579;-73
2022/05/09 07:40:54;;;;;;;9.30;7.10;;;21.80;47.60;;;;;;5034588;28;20514;-73
2022/05/09 07:43:25;;;;;;;14.57;7.50;;;21.90;48.00;;;;;;5046457;28;20664;-72
2022/05/09 07:45:53;;;;;;;9.70;7.60;;;22.20;41.40;;;;;;5056995;28;20208;-72
2022/05/09 07:48:19;;;;;;;11.00;7.47;;;22.40;43.70;;;;;;5058713;28;20852;-73
2022/05/09 07:50:48;;;;;;;10.83;7.80;;;22.70;37.90;;;;;;5060633;28;20430;-74
2022/05/09 07:53:19;;;;;;;9.00;7.10;;;22.80;31.50;;;;;;5056383;28;20251;-74
2022/05/09 07:55:45;;;;;;;8.80;7.40;;;22.80;31.20;;;;;;5060481;28;20547;-73
2022/05/09 07:58:12;;;;;;;8.87;7.70;;;22.80;28.10;;;;;;5061181;28;20442;-74
2022/05/09 08:00:39;;;;;;;9.50;7.83;;;22.60;31.70;;;;;;5058981;28;20430;-73
2022/05/09 08:03:06;;;;;;;10.20;7.80;;;22.70;34.10;;;;;;5056727;28;20433;-73
2022/05/09 08:05:32;;;;;;;9.87;7.47;;;23.00;32.20;;;;;;5060908;28;20484;-72
2022/05/09 08:07:58;;;;;;;8.83;7.47;;;23.30;29.40;;;;;;5062851;28;20527;-73
2022/05/09 08:10:24;;;;;;;9.93;7.27;;;23.60;25.90;;;;;;5061325;28;20477;-72
2022/05/09 08:12:49;;;;;;;12.10;8.23;;;23.70;27.90;;;;;;5061487;28;20215;-72
2022/05/09 08:15:19;;;;;;;8.53;6.93;;;23.80;24.40;;;;;;5060853;28;20188;-73
2022/05/09 08:17:49;;;;;;;10.00;7.50;;;23.90;24.90;;;;;;5061939;28;20195;-73
2022/05/09 08:20:16;;;;;;;11.60;7.27;;;24.20;24.80;;;;;;5063021;28;20429;-73
2022/05/09 08:22:42;;;;;;;34.37;8.50;;;24.50;20.40;;;;;;5061256;28;20449;-72
2022/05/09 08:25:09;;;;;;;10.00;7.23;;;25.00;21.00;;;;;;5060182;28;20477;-73
2022/05/09 08:27:36;;;;;;;9.93;7.33;;;25.30;16.40;;;;;;5061268;28;20176;-72
2022/05/09 08:30:03;;;;;;;10.77;7.33;;;25.90;15.30;;;;;;5061833;28;20460;-70
2022/05/09 08:32:29;;;;;;;8.07;6.60;;;26.70;10.60;;;;;;5058379;28;20441;-70
2022/05/09 08:34:56;;;;;;;10.10;6.97;;;27.50;9.10;;;;;;5057309;28;20438;-70
2022/05/09 08:37:22;;;;;;;7.63;6.83;;;28.20;3.60;;;;;;5060628;28;20199;-69
2022/05/09 08:39:48;;;;;;;8.57;6.77;;;29.10;2.50;;;;;;5063090;28;20184;-71
2022/05/09 08:42:20;;;;;;;11.52;6.78;;;30.10;1.00;;;;;;5063441;28;20248;-71
2022/05/09 08:45:01;;;;;;;7.55;6.75;;;30.60;1.00;;;;;;5064200;28;20200;-70
2022/05/09 08:47:55;;;;;;;11.32;6.40;;;30.70;1.00;;;;;;5063836;28;20184;-71
2022/05/09 08:50:29;;;;;;;8.45;6.35;;;31.00;1.00;;;;;;5059689;28;20176;-70
2022/05/09 08:53:00;;;;;;;10.52;6.40;;;31.50;1.00;;;;;;5064371;28;21792;-71
2022/05/09 08:55:48;;;;;;;9.00;6.18;;;32.50;1.00;;;;;;5064121;28;20188;-71
2022/05/09 08:58:28;;;;;;;8.73;6.70;;;33.10;1.00;;;;;;5062953;28;20669;-72
2022/05/09 09:00:55;;;;;;;7.53;6.38;;;32.90;1.00;;;;;;5062771;28;20256;-71
2022/05/09 09:03:37;;;;;;;8.52;6.22;;;32.70;1.00;;;;;;5064627;28;20184;-71
2022/05/09 09:06:12;;;;;;;7.97;6.28;;;33.00;1.00;;;;;;5060528;28;20230;-71
2022/05/09 09:09:08;;;;;;;7.97;6.05;;;33.50;1.00;;;;;;5063831;28;20191;-71
2022/05/09 09:11:58;;;;;;;6.90;6.00;;;33.50;1.00;;;;;;5062902;28;20196;-72
2022/05/09 09:14:41;;;;;;;8.00;6.47;;;34.20;1.00;;;;;;5061793;28;20570;-71
2022/05/09 09:17:33;;;;;;;10.25;6.43;;;34.00;1.00;;;;;;5062940;28;20290;-72
2022/05/09 09:20:07;;;;;;;7.20;6.13;;;33.90;1.00;;;;;;5063789;28;20180;-72
2022/05/09 09:23:14;;;;;;;9.25;6.18;;;34.70;1.00;;;;;;5061130;28;20255;-72
2022/05/09 09:25:42;;;;;;;8.95;5.93;;;35.60;1.00;;;;;;5063156;28;20233;-72
2022/05/09 09:28:18;;;;;;;7.90;5.93;;;35.70;1.00;;;;;;5063392;28;20291;-72
2022/05/09 09:30:46;;;;;;;7.05;5.68;;;36.30;1.00;;;;;;5064282;28;20182;-71
2022/05/09 09:33:15;;;;;;;7.95;6.40;;;36.60;1.00;;;;;;5062943;28;20308;-72
2022/05/09 09:35:55;;;;;;;7.95;6.03;;;36.50;1.00;;;;;;5060469;28;20314;-72
2022/05/09 09:38:31;;;;;;;7.07;6.18;;;36.60;1.00;;;;;;5063152;28;20502;-72
2022/05/09 09:41:13;;;;;;;9.80;6.03;;;36.30;1.00;;;;;;5062710;28;20270;-72
2022/05/09 09:43:40;;;;;;;7.40;5.80;;;36.20;1.00;;;;;;5063668;28;20192;-72
2022/05/09 09:46:07;;;;;;;6.28;5.68;;;36.70;1.00;;;;;;5060589;28;20259;-71
2022/05/09 09:48:33;;;;;;;8.52;6.00;;;37.30;1.00;;;;;;5064520;28;20195;-71
2022/05/09 09:51:04;;;;;;;6.55;5.47;;;37.40;1.00;;;;;;5062349;28;20175;-72
2022/05/09 09:53:35;;;;;;;8.63;5.97;;;38.00;1.00;;;;;;5063007;28;20180;-72
2022/05/09 09:56:25;;;;;;;6.57;5.90;;;37.90;1.00;;;;;;5060111;28;20534;-72
2022/05/09 09:59:11;;;;;;;6.90;6.20;;;37.60;1.00;;;;;;5063146;28;20187;-72
2022/05/09 10:01:37;;;;;;;7.30;5.97;;;37.70;1.00;;;;;;5061359;28;20627;-72
2022/05/09 10:04:12;;;;;;;7.40;6.20;;;37.90;1.00;;;;;;5064823;28;20190;-73
2022/05/09 10:07:04;;;;;;;7.75;6.60;;;38.10;1.00;;;;;;5062155;28;20880;-72
2022/05/09 10:09:40;;;;;;;10.13;6.07;;;38.50;1.00;;;;;;5058432;28;20180;-71
2022/05/09 10:12:30;;;;;;;6.40;5.75;;;38.50;1.00;;;;;;5062032;28;20183;-73
2022/05/09 10:14:56;;;;;;;9.48;6.30;;;38.70;1.00;;;;;;5060533;28;20263;-71
2022/05/09 10:17:30;;;;;;;7.85;6.22;;;38.80;1.00;;;;;;5063620;28;20263;-71
2022/05/09 10:19:58;;;;;;;8.10;6.05;;;39.00;1.00;;;;;;5062264;28;20192;-72
2022/05/09 10:25:22;;;;;;;7.97;5.80;;;39.80;1.00;;;;;;5063175;28;20747;-72
2022/05/09 10:28:10;;;;;;;8.80;6.18;;;39.70;1.00;;;;;;5063198;28;20770;-72
2022/05/09 10:30:40;;;;;;;7.22;5.95;;;39.60;1.00;;;;;;5063405;28;20513;-72
2022/05/09 10:33:23;;;;;;;35.00;9.13;;;39.30;1.00;;;;;;5061327;28;20664;-72
2022/05/09 10:35:54;;;;;;;15.82;6.22;;;39.90;1.00;;;;;;5063941;28;20662;-71
2022/05/09 10:38:37;;;;;;;19.60;6.93;;;39.30;1.00;;;;;;5060313;28;20179;-71
2022/05/09 10:41:21;;;;;;;6.43;5.22;;;40.00;1.00;;;;;;5058885;28;20191;-71
2022/05/09 10:43:54;;;;;;;7.55;5.63;;;40.30;1.00;;;;;;5061645;28;20239;-72
2022/05/09 10:46:24;;;;;;;7.10;5.75;;;40.80;1.00;;;;;;5059188;28;20231;-71
2022/05/09 10:48:59;;;;;;;8.77;5.80;;;40.80;1.00;;;;;;5063132;28;20176;-70
2022/05/09 10:51:52;;;;;;;6.88;5.32;;;40.90;1.00;;;;;;5060232;28;20171;-71
2022/05/09 10:54:29;;;;;;;7.90;5.45;;;40.70;1.00;;;;;;5058271;28;20260;-72
2022/05/09 10:57:05;;;;;;;7.78;5.63;;;41.40;1.00;;;;;;5061589;28;20195;-71
2022/05/09 10:59:35;;;;;;;6.78;6.07;;;41.70;1.00;;;;;;5062196;28;20186;-72
2022/05/09 11:02:21;;;;;;;8.18;5.40;;;41.90;1.00;;;;;;5056807;28;20195;-71
2022/05/09 11:04:47;;;;;;;7.50;5.32;;;42.10;1.00;;;;;;5063558;28;20187;-72
2022/05/09 11:07:35;;;;;;;11.88;5.60;;;42.00;1.00;;;;;;5061985;28;20164;-71
2022/05/09 11:10:10;;;;;;;8.70;5.53;;;41.90;1.00;;;;;;5061223;28;20172;-72
2022/05/09 11:12:54;;;;;;;9.20;5.40;;;41.60;1.00;;;;;;5060434;28;20187;-72
2022/05/09 11:16:04;;;;;;;8.43;6.00;;;41.40;1.00;;;;;;5059679;28;20230;-71
2022/05/09 11:18:51;;;;;;;7.50;5.68;;;41.30;1.00;;;;;;5056586;28;20205;-72
2022/05/09 11:21:49;;;;;;;6.22;5.55;;;41.90;1.00;;;;;;5062712;28;20611;-72
2022/05/09 11:24:23;;;;;;;9.23;5.93;;;42.60;1.00;;;;;;5061540;28;20207;-72
2022/05/09 11:27:21;;;;;;;7.90;5.75;;;42.80;1.00;;;;;;5061456;28;20196;-71
2022/05/09 11:30:08;;;;;;;6.80;5.32;;;42.50;1.00;;;;;;5062017;28;20180;-72
2022/05/09 11:32:42;;;;;;;6.05;4.60;;;42.40;1.00;;;;;;5057456;28;20221;-72
2022/05/09 11:35:08;;;;;;;6.55;5.38;;;42.50;1.00;;;;;;5062251;28;20195;-71
2022/05/09 11:37:55;;;;;;;8.30;5.05;;;41.40;1.00;;;;;;5061668;28;20563;-72
2022/05/09 11:40:27;;;;;;;7.15;4.70;;;40.70;1.00;;;;;;5059818;28;20586;-71
2022/05/09 11:43:29;;;;;;;6.53;4.90;;;39.90;1.00;;;;;;5057823;28;20245;-71
2022/05/09 11:46:28;;;;;;;8.15;5.28;;;39.10;1.00;;;;;;5061003;28;20207;-72
2022/05/09 11:49:17;;;;;;;7.07;4.60;;;39.20;1.00;;;;;;5061336;28;20188;-71
2022/05/09 11:52:22;;;;;;;7.63;4.80;;;39.70;1.00;;;;;;5059818;28;20211;-71
2022/05/09 11:54:49;;;;;;;6.93;4.80;;;39.70;1.00;;;;;;5048916;28;20191;-71
2022/05/09 11:57:29;;;;;;;6.00;5.40;;;39.70;1.00;;;;;;5056440;28;20164;-72
2022/05/09 11:59:57;;;;;;;5.30;4.80;;;39.60;1.00;;;;;;5060020;28;20181;-72
2022/05/09 12:02:49;;;;;;;7.97;5.05;;;40.80;1.00;;;;;;5059696;28;20179;-72
2022/05/09 12:05:26;;;;;;;6.35;4.80;;;41.40;1.00;;;;;;5062571;28;20712;-73
2022/05/09 12:08:15;;;;;;;8.25;4.38;;;40.90;1.00;;;;;;5061080;28;20176;-72
2022/05/09 12:10:43;;;;;;;5.53;4.45;;;40.20;1.00;;;;;;5060362;28;20184;-73
2022/05/09 12:13:25;;;;;;;4.97;4.47;;;40.30;1.00;;;;;;5061558;28;20188;-73
2022/05/09 12:15:55;;;;;;;7.60;4.82;;;40.70;1.00;;;;;;5065811;28;20199;-72
2022/05/09 12:18:54;;;;;;;5.60;4.97;;;41.00;1.00;;;;;;5062724;28;20180;-70
2022/05/09 12:21:24;;;;;;;6.40;4.72;;;41.30;1.00;;;;;;5061966;28;20180;-73
2022/05/09 12:24:11;;;;;;;6.28;4.70;;;41.30;1.00;;;;;;5063566;28;20184;-71
2022/05/09 12:26:39;;;;;;;4.32;3.90;;;41.10;1.00;;;;;;5060673;28;20688;-72
2022/05/09 12:29:29;;;;;;;5.88;4.38;;;41.00;1.00;;;;;;5066408;28;20258;-72
2022/05/09 12:32:03;;;;;;;8.88;4.50;;;41.80;1.00;;;;;;5058955;28;20198;-73
2022/05/09 12:34:40;;;;;;;5.07;4.40;;;42.90;1.00;;;;;;5066477;28;20202;-72
2022/05/09 12:37:06;;;;;;;6.78;4.65;;;43.40;1.00;;;;;;5064597;28;20206;-73
2022/05/09 12:39:36;;;;;;;13.40;6.55;;;42.90;1.00;;;;;;5062162;28;20180;-73
2022/05/09 12:42:11;;;;;;;11.15;6.53;;;43.10;1.00;;;;;;5063498;28;20165;-74
2022/05/09 12:44:43;;;;;;;13.18;7.55;;;42.40;1.00;;;;;;5063761;28;20245;-72
2022/05/09 12:47:12;;;;;;;9.90;7.65;;;42.20;1.00;;;;;;5063239;28;20302;-73
2022/05/09 12:49:45;;;;;;;11.57;8.55;;;41.90;1.00;;;;;;5063893;28;20278;-73
2022/05/09 12:52:17;;;;;;;7.22;4.68;;;41.40;1.00;;;;;;5064709;28;20169;-73
2022/05/09 12:55:52;;;;;;;10.30;7.70;;;41.20;1.00;;;;;;5062517;28;20194;-74
2022/05/09 12:57:34;;;;;;;8.98;6.72;;;40.50;1.00;;;;;;5063995;28;20252;-75
2022/05/09 13:00:16;;;;;;;6.65;4.72;;;40.40;1.00;;;;;;5063864;28;20176;-73
2022/05/09 13:02:42;;;;;;;5.93;4.88;;;40.40;1.00;;;;;;5063568;28;20192;-73
2022/05/09 13:05:09;;;;;;;6.82;4.43;;;39.30;1.00;;;;;;5061111;28;20212;-73
2022/05/09 13:07:56;;;;;;;5.00;4.50;;;39.40;1.00;;;;;;5062645;28;20199;-73
2022/05/09 13:10:23;;;;;;;5.32;4.82;;;39.30;1.00;;;;;;5059708;28;20525;-72
2022/05/09 13:12:49;;;;;;;6.88;5.10;;;39.70;1.00;;;;;;5064722;28;20878;-72
2022/05/09 13:15:19;;;;;;;4.90;4.40;;;40.40;1.00;;;;;;5065332;28;20361;-73